Time;durP1;ratioP1;P1;durP2;ratioP2;P2;SDS_P1;SDS_P2;PMS_P1;PMS_P2;Temp;Humidity;BMP_temperature;BMP_pressure;BME280_temperature;BME280_humidity;BME280_pressure;Samples;Min_cycle;Max_cycle;Signal;HPM_P1;HPM_P2
2021/04/04 00:02:11;;;;;;;41.45;22.58;;;;;;;-0.47;74.78;101599.38;3593755;39;20052;-42
2021/04/04 00:04:37;;;;;;;46.92;24.27;;;;;;;-1.10;76.86;101590.63;3594018;39;20171;-50
2021/04/04 00:07:04;;;;;;;50.00;26.88;;;;;;;-1.08;76.18;101586.63;3593924;39;20087;-47
2021/04/04 00:09:30;;;;;;;47.80;23.67;;;;;;;-0.63;75.93;101596.34;3591073;39;20051;-48
2021/04/04 00:11:57;;;;;;;44.25;20.55;;;;;;;-0.37;75.43;101591.88;3593466;39;20059;-46
2021/04/04 00:14:24;;;;;;;28.95;12.95;;;;;;;-0.08;74.35;101596.81;3593566;39;20051;-48
2021/04/04 00:16:50;;;;;;;22.27;12.20;;;;;;;-0.03;73.99;101597.19;3594238;39;20036;-45
2021/04/04 00:19:17;;;;;;;19.08;10.27;;;;;;;-0.20;74.22;101594.91;3593890;39;20060;-48
2021/04/04 00:21:44;;;;;;;12.50;7.25;;;;;;;-0.43;74.95;101593.84;3593825;39;20297;-45
2021/04/04 00:24:11;;;;;;;16.38;7.53;;;;;;;-0.45;74.38;101585.31;3594048;39;20083;-47
2021/04/04 00:26:37;;;;;;;9.82;6.10;;;;;;;-0.42;74.22;101589.69;3593499;39;20494;-45
2021/04/04 00:29:08;;;;;;;10.30;5.93;;;;;;;-0.38;74.47;101595.13;3593688;39;20140;-47
2021/04/04 00:31:36;;;;;;;11.52;5.90;;;;;;;-0.52;74.04;101593.97;3590829;39;20059;-48
2021/04/04 00:34:04;;;;;;;7.53;4.90;;;;;;;-0.78;74.97;101589.25;3593556;39;20274;-47
2021/04/04 00:36:31;;;;;;;7.28;5.25;;;;;;;-0.86;76.12;101586.84;3590807;39;20064;-48
2021/04/04 00:38:57;;;;;;;5.70;4.00;;;;;;;-1.09;77.14;101578.19;3593599;39;20176;-48
2021/04/04 00:41:24;;;;;;;6.32;4.45;;;;;;;-0.61;75.76;101582.25;3594567;39;20059;-47
2021/04/04 00:43:51;;;;;;;6.53;3.47;;;;;;;-0.66;75.22;101586.00;3599767;39;20088;-49
2021/04/04 00:46:17;;;;;;;4.50;3.30;;;;;;;-0.52;74.00;101583.91;3599840;39;20336;-48
2021/04/04 00:48:43;;;;;;;6.32;3.78;;;;;;;-0.82;75.40;101584.72;3594423;39;20088;-45
2021/04/04 00:51:10;;;;;;;5.82;3.85;;;;;;;-0.46;74.21;101587.66;3593817;39;20111;-49
2021/04/04 00:53:37;;;;;;;5.15;4.43;;;;;;;-0.79;75.52;101595.03;3593469;39;20184;-46
2021/04/04 00:56:05;;;;;;;8.43;5.82;;;;;;;-0.85;76.34;101594.50;3593208;39;20060;-44
2021/04/04 00:58:31;;;;;;;10.52;6.28;;;;;;;-1.45;78.85;101593.47;3590634;39;20523;-45
2021/04/04 01:00:58;;;;;;;11.80;5.57;;;;;;;-1.69;79.38;101588.78;3593156;39;20060;-46
2021/04/04 01:03:25;;;;;;;7.47;4.97;;;;;;;-1.82;79.86;101581.78;3593693;39;20429;-49
2021/04/04 01:05:55;;;;;;;9.93;6.20;;;;;;;-1.68;81.47;101593.06;3593285;39;20091;-49
2021/04/04 01:08:22;;;;;;;13.55;7.18;;;;;;;-1.73;80.76;101587.63;3593752;39;20092;-46
2021/04/04 01:10:49;;;;;;;32.83;13.60;;;;;;;-1.52;79.82;101593.69;3593751;39;20080;-45
2021/04/04 01:13:44;;;;;;;30.42;14.48;;;;;;;-1.73;80.00;101591.78;3593523;39;20051;-46
2021/04/04 01:16:45;;;;;;;9.90;5.18;;;;;;;-1.88;80.06;101583.75;3593165;39;20112;-44
2021/04/04 01:19:33;;;;;;;11.15;5.00;;;;;;;-1.89;80.44;101580.38;3586480;39;20079;-48
2021/04/04 01:22:14;;;;;;;10.25;5.80;;;;;;;-1.80;79.36;101590.34;3593654;39;20044;-48
2021/04/04 01:24:59;;;;;;;14.55;7.28;;;;;;;-1.58;80.02;101583.06;3584059;39;20765;-44
2021/04/04 01:27:43;;;;;;;13.43;6.57;;;;;;;-1.59;79.85;101583.81;3592689;39;20557;-45
2021/04/04 01:30:12;;;;;;;11.52;5.50;;;;;;;-1.11;78.79;101587.25;3593526;39;20063;-48
2021/04/04 01:32:41;;;;;;;8.13;4.88;;;;;;;-1.32;78.77;101576.19;3593339;39;20068;-48
2021/04/04 01:35:10;;;;;;;6.53;3.80;;;;;;;-1.03;77.94;101580.34;3593095;39;20072;-48
2021/04/04 01:37:40;;;;;;;6.40;4.15;;;;;;;-1.25;79.02;101584.25;3593128;39;20321;-46
2021/04/04 01:40:12;;;;;;;4.75;3.20;;;;;;;-0.75;77.29;101576.03;3592963;39;20070;-45
2021/04/04 01:42:42;;;;;;;7.47;3.88;;;;;;;-0.87;77.02;101575.91;3593313;39;20393;-48
2021/04/04 01:45:10;;;;;;;6.25;3.85;;;;;;;-0.81;78.09;101578.03;3593337;39;20048;-46
2021/04/04 01:47:38;;;;;;;6.07;3.47;;;;;;;-1.06;77.29;101575.06;3593292;39;20052;-47
2021/04/04 01:50:07;;;;;;;5.22;4.32;;;;;;;-1.55;80.87;101573.31;3593073;39;20092;-46
2021/04/04 01:52:36;;;;;;;5.53;3.95;;;;;;;-1.76;81.24;101576.41;3590443;39;20148;-49
2021/04/04 01:55:05;;;;;;;5.38;4.10;;;;;;;-1.68;80.88;101570.47;3593019;39;20434;-47
2021/04/04 01:57:32;;;;;;;6.95;4.03;;;;;;;-1.41;80.66;101570.38;3589919;39;20072;-46
2021/04/04 02:00:01;;;;;;;7.65;3.80;;;;;;;-1.35;79.78;101570.03;3592263;39;20477;-44
2021/04/04 02:02:28;;;;;;;6.47;3.78;;;;;;;-0.93;76.77;101567.81;3589096;39;20116;-49
2021/04/04 02:04:55;;;;;;;4.60;3.38;;;;;;;-1.37;79.21;101574.03;3592974;39;20052;-45
2021/04/04 02:07:22;;;;;;;6.32;4.18;;;;;;;-1.27;78.65;101574.09;3590693;39;20096;-49
2021/04/04 02:09:49;;;;;;;4.72;4.20;;;;;;;-1.53;80.01;101566.78;3595122;39;20040;-49
2021/04/04 02:12:17;;;;;;;8.60;4.65;;;;;;;-1.22;79.61;101561.94;3592131;39;20414;-46
2021/04/04 02:14:44;;;;;;;5.55;4.35;;;;;;;-1.55;80.55;101564.13;3592708;39;20087;-48
2021/04/04 02:17:12;;;;;;;7.47;4.20;;;;;;;-1.83;82.24;101568.34;3592308;39;20080;-44
2021/04/04 02:19:39;;;;;;;7.00;4.45;;;;;;;-2.06;83.91;101567.94;3592805;39;20067;-44
2021/04/04 02:22:05;;;;;;;5.38;4.20;;;;;;;-2.11;83.90;101567.53;3592725;39;20084;-43
2021/04/04 02:24:33;;;;;;;12.80;4.45;;;;;;;-2.05;84.53;101565.53;3590542;39;20059;-44
2021/04/04 02:27:00;;;;;;;6.45;4.40;;;;;;;-2.03;84.14;101565.72;3593022;39;20044;-44
2021/04/04 02:29:26;;;;;;;5.95;4.20;;;;;;;-2.01;84.36;101571.72;3593249;39;20096;-45
2021/04/04 02:31:53;;;;;;;7.80;4.20;;;;;;;-1.46;82.52;101559.03;3593282;39;20052;-45
2021/04/04 02:34:25;;;;;;;7.15;4.35;;;;;;;-1.51;82.04;101554.38;3592946;39;20056;-43
2021/04/04 02:36:52;;;;;;;7.88;4.50;;;;;;;-1.68;82.15;101556.28;3594186;39;20067;-44
2021/04/04 02:39:26;;;;;;;7.57;4.15;;;;;;;-1.87;82.86;101550.38;3594383;39;20055;-48
2021/04/04 02:41:55;;;;;;;7.13;3.80;;;;;;;-1.71;82.79;101545.97;3594665;39;20040;-47
2021/04/04 02:44:22;;;;;;;8.20;4.55;;;;;;;-1.49;80.84;101545.34;3594561;39;20336;-44
2021/04/04 02:46:54;;;;;;;6.68;4.07;;;;;;;-1.84;82.84;101544.00;3594110;39;20056;-48
2021/04/04 02:49:27;;;;;;;5.95;4.20;;;;;;;-1.76;83.20;101541.28;3594556;39;20531;-45
2021/04/04 02:51:56;;;;;;;8.88;4.32;;;;;;;-1.64;82.85;101535.72;3594412;39;20360;-44
2021/04/04 02:54:29;;;;;;;6.80;4.60;;;;;;;-1.90;83.33;101540.94;3594370;39;20060;-44
2021/04/04 02:56:57;;;;;;;8.75;4.57;;;;;;;-1.41;81.68;101546.88;3594225;39;20165;-48
2021/04/04 02:59:44;;;;;;;7.25;5.03;;;;;;;-1.79;82.15;101544.41;3594729;39;20072;-44
2021/04/04 03:02:15;;;;;;;6.60;4.43;;;;;;;-1.64;82.22;101538.22;3594332;39;20274;-44
2021/04/04 03:04:43;;;;;;;7.28;4.20;;;;;;;-1.44;82.12;101532.41;3594476;39;20642;-44
2021/04/04 03:07:12;;;;;;;8.32;4.43;;;;;;;-1.82;83.79;101541.63;3594073;39;20402;-47
2021/04/04 03:09:41;;;;;;;6.45;4.10;;;;;;;-1.86;82.80;101537.94;3594083;39;20063;-48
2021/04/04 03:12:09;;;;;;;4.88;3.83;;;;;;;-1.73;82.32;101537.41;3593927;39;20050;-46
2021/04/04 03:14:43;;;;;;;5.35;4.25;;;;;;;-1.77;82.42;101539.53;3594019;39;20610;-49
2021/04/04 03:17:11;;;;;;;9.52;5.05;;;;;;;-2.03;84.79;101542.22;3593889;39;20077;-46
2021/04/04 03:19:40;;;;;;;7.32;4.53;;;;;;;-2.15;85.16;101530.34;3594200;39;20373;-45
2021/04/04 03:22:08;;;;;;;9.00;5.25;;;;;;;-2.26;86.40;101525.13;3594019;39;20475;-45
2021/04/04 03:24:35;;;;;;;7.07;4.22;;;;;;;-2.09;85.55;101520.84;3593936;39;20104;-45
2021/04/04 03:27:03;;;;;;;6.22;4.10;;;;;;;-1.93;84.76;101520.59;3593712;39;20088;-46
2021/04/04 03:29:30;;;;;;;6.75;4.25;;;;;;;-2.13;84.87;101518.81;3594189;39;20111;-47
2021/04/04 03:31:58;;;;;;;7.30;4.25;;;;;;;-2.11;84.15;101524.00;3590983;39;20440;-46
2021/04/04 03:34:25;;;;;;;9.52;4.85;;;;;;;-2.15;85.21;101526.97;3594383;39;20071;-46
2021/04/04 03:36:54;;;;;;;8.38;4.97;;;;;;;-2.39;87.00;101518.13;3594068;39;20077;-47
2021/04/04 03:39:22;;;;;;;8.57;4.63;;;;;;;-2.59;87.23;101512.19;3594246;39;20077;-51
2021/04/04 03:41:50;;;;;;;9.35;4.53;;;;;;;-2.44;86.28;101514.31;3594329;39;20059;-46
2021/04/04 03:44:20;;;;;;;9.32;5.55;;;;;;;-2.63;86.55;101514.28;3593973;39;20066;-44
2021/04/04 03:46:48;;;;;;;7.47;5.10;;;;;;;-2.59;85.54;101514.69;3593491;39;20080;-46
2021/04/04 03:49:15;;;;;;;7.47;4.63;;;;;;;-2.64;85.65;101508.34;3593010;39;20055;-44
2021/04/04 03:51:42;;;;;;;8.82;4.38;;;;;;;-2.53;86.18;101503.47;3593767;39;20066;-46
2021/04/04 03:54:14;;;;;;;6.78;4.63;;;;;;;-2.26;84.14;101510.97;3593994;39;20522;-45
2021/04/04 03:56:48;;;;;;;7.68;3.95;;;;;;;-2.21;83.99;101506.34;3593972;39;20378;-46
2021/04/04 03:59:17;;;;;;;7.93;4.78;;;;;;;-2.28;84.75;101512.44;3593071;39;20071;-46
2021/04/04 04:01:46;;;;;;;6.65;4.13;;;;;;;-2.08;83.41;101507.59;3594294;39;20055;-46
2021/04/04 04:04:14;;;;;;;8.55;4.45;;;;;;;-1.82;83.37;101509.88;3593760;39;20052;-44
2021/04/04 04:06:43;;;;;;;10.88;4.75;;;;;;;-1.88;83.14;101503.44;3593675;39;20393;-49
2021/04/04 04:09:16;;;;;;;7.57;4.72;;;;;;;-2.05;83.10;101500.31;3593956;39;20405;-46
2021/04/04 04:11:45;;;;;;;7.03;4.65;;;;;;;-1.98;83.76;101489.22;3594145;39;20079;-45
2021/04/04 04:14:14;;;;;;;6.63;3.72;;;;;;;-1.90;84.10;101488.22;3593839;39;20805;-48
2021/04/04 04:16:42;;;;;;;7.15;3.72;;;;;;;-2.13;85.57;101492.84;3593506;39;20573;-47
2021/04/04 04:19:11;;;;;;;6.32;4.32;;;;;;;-2.06;86.12;101491.03;3593846;39;20048;-45
2021/04/04 04:21:40;;;;;;;6.97;4.65;;;;;;;-1.90;84.75;101484.84;3596570;39;20330;-47
2021/04/04 04:24:10;;;;;;;9.52;4.55;;;;;;;-2.02;84.80;101481.28;3593107;39;20095;-45
2021/04/04 04:26:41;;;;;;;5.80;4.13;;;;;;;-1.99;85.47;101482.41;3594856;39;20049;-44
2021/04/04 04:29:11;;;;;;;8.48;4.32;;;;;;;-1.86;84.94;101487.75;3593322;39;20059;-43
2021/04/04 04:31:43;;;;;;;5.22;4.03;;;;;;;-2.13;85.58;101481.19;3593939;39;20393;-45
2021/04/04 04:34:11;;;;;;;7.35;4.63;;;;;;;-1.85;84.22;101483.59;3594126;39;20337;-45
2021/04/04 04:36:40;;;;;;;5.68;4.10;;;;;;;-1.89;83.90;101487.50;3593475;39;20358;-47
2021/04/04 04:39:09;;;;;;;9.32;4.20;;;;;;;-2.29;85.02;101480.56;3593636;39;20040;-45
2021/04/04 04:41:44;;;;;;;7.72;4.63;;;;;;;-2.32;86.16;101476.16;3597440;39;20068;-48
2021/04/04 04:44:15;;;;;;;7.65;4.57;;;;;;;-1.95;84.60;101483.56;3597869;39;20048;-49
2021/04/04 04:46:43;;;;;;;7.18;4.22;;;;;;;-2.00;83.69;101480.63;3597538;39;20473;-46
2021/04/04 04:49:10;;;;;;;8.65;4.90;;;;;;;-2.26;85.71;101485.00;3594414;39;20183;-47
2021/04/04 04:51:37;;;;;;;7.40;4.78;;;;;;;-2.08;84.74;101482.50;3594023;39;20071;-49
2021/04/04 04:54:04;;;;;;;7.88;4.53;;;;;;;-2.22;85.37;101477.84;3593444;39;20047;-43
2021/04/04 04:56:36;;;;;;;7.90;4.82;;;;;;;-2.27;84.74;101481.56;3590528;39;20049;-47
2021/04/04 04:59:05;;;;;;;6.00;4.63;;;;;;;-2.36;83.88;101480.75;3592843;39;20300;-44
2021/04/04 05:01:38;;;;;;;7.93;4.47;;;;;;;-2.08;83.94;101479.06;3590568;39;20314;-47
2021/04/04 05:04:05;;;;;;;7.85;4.63;;;;;;;-1.80;83.71;101483.28;3593534;39;20463;-47
2021/04/04 05:06:32;;;;;;;7.47;5.25;;;;;;;-1.84;83.79;101478.75;3593374;39;20062;-45
2021/04/04 05:08:59;;;;;;;8.00;5.55;;;;;;;-2.26;84.77;101478.34;3593371;39;20356;-43
2021/04/04 05:11:27;;;;;;;9.98;5.25;;;;;;;-1.92;84.29;101479.69;3590724;39;20104;-48
2021/04/04 05:13:53;;;;;;;9.65;4.72;;;;;;;-2.15;85.54;101479.28;3593545;39;20064;-46
2021/04/04 05:16:20;;;;;;;8.43;5.25;;;;;;;-2.13;85.59;101480.28;3593445;39;20104;-48
2021/04/04 05:18:56;;;;;;;7.45;4.78;;;;;;;-1.76;83.85;101484.41;3593457;39;20060;-48
2021/04/04 05:21:26;;;;;;;7.28;4.90;;;;;;;-1.87;84.15;101483.47;3593011;39;20071;-46
2021/04/04 05:24:05;;;;;;;8.82;5.13;;;;;;;-1.84;83.55;101486.28;3593273;39;20044;-44
2021/04/04 05:26:37;;;;;;;8.40;4.60;;;;;;;-1.69;83.10;101490.88;3590219;39;20095;-44
2021/04/04 05:29:07;;;;;;;9.65;4.65;;;;;;;-1.24;81.59;101491.44;3593323;39;20350;-44
2021/04/04 05:31:42;;;;;;;8.30;5.25;;;;;;;-1.55;81.94;101478.75;3590226;39;20051;-46
2021/04/04 05:34:14;;;;;;;7.95;5.28;;;;;;;-1.55;83.12;101475.38;3593054;39;20655;-44
2021/04/04 05:36:55;;;;;;;7.13;4.57;;;;;;;-1.45;82.88;101482.94;3593184;39;20460;-44
2021/04/04 05:39:24;;;;;;;7.00;4.30;;;;;;;-1.26;82.12;101484.50;3592495;39;20079;-45
2021/04/04 05:41:54;;;;;;;6.22;4.22;;;;;;;-1.24;82.62;101480.53;3593131;39;20080;-45
2021/04/04 05:44:38;;;;;;;7.57;4.85;;;;;;;-1.15;81.95;101481.31;3593503;39;20480;-47
2021/04/04 05:47:12;;;;;;;8.30;5.68;;;;;;;-1.10;82.04;101473.41;3592739;39;20107;-47
2021/04/04 05:50:05;;;;;;;7.50;4.83;;;;;;;-1.18;82.46;101478.53;3590749;39;20437;-46
2021/04/04 05:52:31;;;;;;;8.23;5.03;;;;;;;-1.20;82.37;101475.88;3590369;39;20048;-45
2021/04/04 05:55:22;;;;;;;6.25;4.60;;;;;;;-1.01;81.07;101487.50;3593121;39;20129;-45
2021/04/04 05:58:15;;;;;;;7.32;4.07;;;;;;;-0.99;80.94;101469.25;3591510;39;20469;-44
2021/04/04 06:00:46;;;;;;;5.97;4.70;;;;;;;-0.65;79.81;101467.91;3590464;39;20075;-43
2021/04/04 06:03:13;;;;;;;5.25;4.50;;;;;;;-0.62;79.09;101469.81;3593339;39;20084;-46
2021/04/04 06:05:58;;;;;;;7.03;3.65;;;;;;;-0.27;78.44;101468.56;3593322;39;20059;-40
2021/04/04 06:08:43;;;;;;;8.23;4.25;;;;;;;0.05;77.73;101459.31;3592729;39;20076;-43
2021/04/04 06:11:34;;;;;;;6.68;4.13;;;;;;;0.14;76.77;101467.59;3588914;39;20087;-43
2021/04/04 06:14:25;;;;;;;6.93;4.65;;;;;;;0.47;76.95;101466.88;3593597;39;20046;-46
2021/04/04 06:16:55;;;;;;;8.38;4.40;;;;;;;0.75;75.64;101468.25;3591964;39;20385;-43
2021/04/04 06:19:47;;;;;;;7.47;4.55;;;;;;;0.91;74.15;101467.78;3591548;39;20332;-45
2021/04/04 06:22:23;;;;;;;5.05;3.55;;;;;;;1.18;72.80;101473.19;3586860;39;20032;-44
2021/04/04 06:24:56;;;;;;;5.20;3.80;;;;;;;1.76;71.04;101469.97;3592587;39;20085;-45
2021/04/04 06:27:40;;;;;;;7.53;4.30;;;;;;;1.88;71.31;101460.72;3592422;39;20087;-41
2021/04/04 06:30:45;;;;;;;7.07;3.97;;;;;;;2.40;68.81;101467.00;3589999;39;20115;-41
2021/04/04 06:33:21;;;;;;;7.13;4.30;;;;;;;2.99;66.79;101461.81;3589333;39;20048;-42
2021/04/04 06:36:03;;;;;;;10.40;7.47;;;;;;;3.76;62.14;101465.28;3595389;39;20052;-41
2021/04/04 06:38:38;;;;;;;3.65;3.30;;;;;;;4.53;59.57;101465.97;3591962;39;20341;-43
2021/04/04 06:41:17;;;;;;;2.15;1.67;;;;;;;5.44;56.93;101465.59;3590322;39;20059;-42
2021/04/04 06:44:02;;;;;;;4.05;2.67;;;;;;;5.89;53.82;101471.59;3593415;39;20058;-42
2021/04/04 06:46:49;;;;;;;4.03;2.55;;;;;;;8.05;48.20;101472.81;3592550;39;20061;-47
2021/04/04 06:49:30;;;;;;;2.45;1.92;;;;;;;9.14;44.02;101476.19;3592104;39;20052;-42
2021/04/04 06:52:36;;;;;;;3.28;2.70;;;;;;;8.84;44.37;101478.25;3590878;39;20129;-45
2021/04/04 06:55:04;;;;;;;;;;;;;;;9.42;43.02;101474.00;3594728;39;20137;-44
2021/04/04 06:57:48;;;;;;;;;;;;;;;9.90;41.71;101478.56;3592944;39;19939;-43
2021/04/04 07:00:41;;;;;;;4.97;3.38;;;;;;;8.80;44.66;101472.13;3591759;39;19946;-44
2021/04/04 07:03:13;;;;;;;3.88;2.95;;;;;;;10.77;40.18;101476.03;3588359;39;20065;-43
2021/04/04 07:05:49;;;;;;;4.60;3.05;;;;;;;10.76;39.55;101477.72;3590873;39;20432;-43
2021/04/04 07:08:44;;;;;;;3.85;2.80;;;;;;;10.83;39.43;101482.25;3590058;39;20087;-44
2021/04/04 07:11:18;;;;;;;5.50;2.83;;;;;;;10.36;41.26;101476.22;3591660;39;20085;-42
2021/04/04 07:14:28;;;;;;;4.63;2.63;;;;;;;11.58;38.27;101484.06;3592163;39;20336;-43
2021/04/04 07:17:11;;;;;;;3.88;2.45;;;;;;;11.21;38.00;101475.97;3590996;39;20079;-44
2021/04/04 07:19:47;;;;;;;4.13;2.30;;;;;;;12.37;36.16;101479.00;3589918;39;20055;-43
2021/04/04 07:22:36;;;;;;;3.05;1.60;;;;;;;11.06;38.45;101472.84;3591871;39;20410;-43
2021/04/04 07:25:15;;;;;;;2.03;1.60;;;;;;;11.59;36.35;101468.72;3594160;39;20495;-42
2021/04/04 07:28:03;;;;;;;2.85;1.65;;;;;;;12.13;36.52;101467.97;3588810;39;20112;-42
2021/04/04 07:30:36;;;;;;;2.85;1.85;;;;;;;11.97;35.99;101474.28;3592779;39;20047;-43
2021/04/04 07:33:14;;;;;;;2.15;1.83;;;;;;;10.63;39.25;101468.72;3594006;39;20063;-44
2021/04/04 07:35:53;;;;;;;2.22;1.83;;;;;;;9.24;42.14;101467.22;3591532;39;20060;-42
2021/04/04 07:38:43;;;;;;;3.72;1.95;;;;;;;9.58;39.82;101459.34;3593067;39;20119;-43
2021/04/04 07:41:17;;;;;;;2.97;2.13;;;;;;;10.74;37.27;101475.94;3588185;39;20071;-43
2021/04/04 07:44:01;;;;;;;3.63;2.20;;;;;;;10.40;38.78;101469.53;3594354;39;20048;-43
2021/04/04 07:46:50;;;;;;;4.07;2.22;;;;;;;9.69;39.63;101458.97;3593558;39;20048;-42
2021/04/04 07:49:34;;;;;;;5.32;2.03;;;;;;;9.04;41.97;101467.25;3592791;39;20925;-42
2021/04/04 07:52:11;;;;;;;3.22;2.03;;;;;;;7.87;44.14;101455.81;3593051;39;20115;-43
2021/04/04 07:54:51;;;;;;;2.17;1.50;;;;;;;7.22;45.82;101450.84;3592269;39;20303;-43
2021/04/04 07:57:59;;;;;;;4.95;2.10;;;;;;;7.04;47.20;101443.13;3600551;39;20473;-44
2021/04/04 08:00:26;;;;;;;3.25;2.22;;;;;;;7.16;47.17;101445.41;3577455;39;20092;-43
2021/04/04 08:03:05;;;;;;;3.17;1.77;;;;;;;7.26;46.93;101446.78;3589021;39;20044;-43
2021/04/04 08:05:38;;;;;;;4.38;1.92;;;;;;;7.15;47.76;101441.13;3591350;39;20052;-41
2021/04/04 08:08:14;;;;;;;1.90;1.40;;;;;;;6.92;48.34;101452.66;3595850;39;20067;-45
2021/04/04 08:10:47;;;;;;;;;;;;;;;7.39;48.29;101447.50;3592626;39;20052;-44
2021/04/04 08:13:50;;;;;;;2.88;1.92;;;;;;;7.61;47.54;101443.44;3589940;39;20377;-42
2021/04/04 08:16:30;;;;;;;2.53;1.38;;;;;;;7.36;46.96;101442.22;3584709;39;20080;-45
2021/04/04 08:18:57;;;;;;;4.55;1.98;;;;;;;6.88;48.00;101443.09;3591523;39;20064;-45
2021/04/04 08:21:31;;;;;;;4.75;1.58;;;;;;;7.79;46.39;101440.94;3593900;39;20122;-45
2021/04/04 08:24:06;;;;;;;4.35;1.92;;;;;;;8.01;46.44;101436.09;3594066;39;20413;-43
2021/04/04 08:27:02;;;;;;;2.42;1.52;;;;;;;8.46;45.28;101435.63;3591347;39;20149;-44
2021/04/04 08:29:31;;;;;;;3.63;1.73;;;;;;;8.11;45.58;101434.84;3593840;39;20574;-43
2021/04/04 08:32:02;;;;;;;5.55;2.10;;;;;;;8.40;46.11;101436.22;3593883;39;20441;-46
2021/04/04 08:34:37;;;;;;;2.90;1.70;;;;;;;8.81;43.80;101440.66;3593985;39;20059;-45
2021/04/04 08:37:18;;;;;;;6.75;2.38;;;;;;;9.17;43.92;101433.75;3593517;39;20401;-45
2021/04/04 08:39:54;;;;;;;2.75;1.88;;;;;;;9.11;44.82;101427.53;3591837;39;20049;-46
2021/04/04 08:42:21;;;;;;;3.05;1.95;;;;;;;8.59;44.90;101427.75;3592982;39;20060;-45
2021/04/04 08:44:58;;;;;;;3.85;2.08;;;;;;;8.48;45.37;101427.25;3593240;39;20080;-45
2021/04/04 08:47:32;;;;;;;2.70;1.80;;;;;;;8.47;46.62;101419.53;3593241;39;20473;-45
2021/04/04 08:50:11;;;;;;;4.47;2.38;;;;;;;8.64;44.61;101423.72;3592851;39;20045;-43
2021/04/04 08:52:45;;;;;;;5.85;2.25;;;;;;;8.34;45.19;101415.50;3591842;39;20144;-43
2021/04/04 08:55:19;;;;;;;5.03;1.83;;;;;;;8.35;46.36;101407.91;3595388;39;20133;-50
2021/04/04 08:57:49;;;;;;;5.88;2.15;;;;;;;8.26;45.83;101412.59;3595648;39;20102;-47
2021/04/04 09:00:18;;;;;;;8.18;2.47;;;;;;;8.90;45.91;101419.78;3593260;39;20052;-43
2021/04/04 09:02:59;;;;;;;4.95;2.30;;;;;;;8.80;45.58;101421.06;3593196;39;20579;-46
2021/04/04 09:05:30;;;;;;;4.75;2.85;;;;;;;8.22;46.04;101417.47;3592734;39;20056;-42
2021/04/04 09:07:59;;;;;;;4.38;2.55;;;;;;;8.47;46.26;101417.00;3593526;39;20062;-42
2021/04/04 09:10:29;;;;;;;7.10;2.47;;;;;;;8.65;46.77;101422.94;3593567;39;20114;-45
2021/04/04 09:12:57;;;;;;;6.25;2.47;;;;;;;8.36;46.51;101404.59;3593726;39;20055;-43
2021/04/04 09:15:25;;;;;;;6.00;2.33;;;;;;;8.82;45.98;101409.22;3594245;39;20088;-46
2021/04/04 09:17:57;;;;;;;5.20;2.83;;;;;;;8.98;44.94;101402.25;3595570;39;20550;-47
2021/04/04 09:20:35;;;;;;;4.68;2.72;;;;;;;8.92;45.78;101400.31;3594163;39;20063;-45
2021/04/04 09:23:03;;;;;;;4.93;2.90;;;;;;;9.12;45.07;101393.50;3591557;39;20550;-46
2021/04/04 09:25:35;;;;;;;7.38;2.63;;;;;;;9.13;46.78;101397.78;3593139;39;20118;-41
2021/04/04 09:28:07;;;;;;;6.75;2.65;;;;;;;9.74;44.74;101404.56;3595244;39;20441;-45
2021/04/04 09:30:40;;;;;;;4.80;2.67;;;;;;;10.13;45.50;101395.94;3591658;39;20370;-42
2021/04/04 09:33:11;;;;;;;3.78;2.33;;;;;;;10.01;44.67;101394.56;3591614;39;20099;-44
2021/04/04 09:35:39;;;;;;;4.43;2.60;;;;;;;9.58;44.77;101390.31;3591907;39;20088;-45
2021/04/04 09:38:12;;;;;;;6.03;3.00;;;;;;;10.06;45.21;101398.19;3592561;39;20098;-45
2021/04/04 09:40:41;;;;;;;5.20;2.90;;;;;;;9.99;43.68;101389.41;3590027;39;20088;-44
2021/04/04 09:43:16;;;;;;;6.57;3.20;;;;;;;10.20;45.28;101385.09;3592781;39;20048;-47
2021/04/04 09:45:43;;;;;;;6.63;3.28;;;;;;;10.16;46.73;101390.91;3592187;39;20058;-45
2021/04/04 09:48:24;;;;;;;7.80;3.40;;;;;;;10.62;44.21;101377.31;3593099;39;20044;-45
2021/04/04 09:51:06;;;;;;;8.65;3.63;;;;;;;10.32;44.62;101382.19;3593245;39;20055;-47
2021/04/04 09:53:36;;;;;;;7.82;3.92;;;;;;;10.71;45.47;101379.31;3590515;39;20059;-42
2021/04/04 09:56:11;;;;;;;8.02;3.72;;;;;;;10.73;46.44;101375.16;3593133;39;20141;-46
2021/04/04 09:58:43;;;;;;;8.15;4.20;;;;;;;10.86;44.45;101379.91;3591046;39;20044;-47
2021/04/04 10:01:20;;;;;;;12.45;4.30;;;;;;;12.50;40.83;101380.06;3593033;39;20054;-45
2021/04/04 10:03:58;;;;;;;11.00;4.38;;;;;;;13.95;39.17;101378.69;3590615;39;20056;-42
2021/04/04 10:06:29;;;;;;;8.13;4.05;;;;;;;17.48;31.95;101385.22;3588122;39;20055;-44
2021/04/04 10:09:03;;;;;;;6.90;3.60;;;;;;;19.30;29.37;101396.50;3593712;39;20457;-45
2021/04/04 10:11:32;;;;;;;8.07;3.53;;;;;;;19.77;27.16;101380.94;3595934;39;20087;-47
2021/04/04 10:14:13;;;;;;;9.05;3.78;;;;;;;19.72;27.27;101380.09;3592828;39;20067;-44
2021/04/04 10:16:43;;;;;;;11.57;4.40;;;;;;;20.79;27.01;101374.56;3591762;39;20148;-45
2021/04/04 10:19:12;;;;;;;7.93;4.07;;;;;;;21.64;25.53;101382.69;3595406;39;20339;-45
2021/04/04 10:21:40;;;;;;;8.48;3.72;;;;;;;21.46;25.20;101375.91;3590843;39;20048;-45
2021/04/04 10:24:35;;;;;;;11.07;4.15;;;;;;;22.44;23.03;101374.91;3595567;39;20501;-46
2021/04/04 10:27:25;;;;;;;9.90;5.95;;;;;;;22.74;23.34;101380.59;3595557;39;20111;-47
2021/04/04 10:30:14;;;;;;;7.88;3.95;;;;;;;21.52;24.73;101368.00;3590821;39;20111;-44
2021/04/04 10:32:49;;;;;;;8.43;4.15;;;;;;;22.02;24.08;101357.97;3589423;39;20047;-42
2021/04/04 10:35:34;;;;;;;6.57;4.00;;;;;;;23.37;23.13;101370.97;3590822;39;20056;-41
2021/04/04 10:38:09;;;;;;;11.57;4.60;;;;;;;24.59;21.43;101370.47;3592833;39;20170;-44
2021/04/04 10:40:51;;;;;;;7.80;4.35;;;;;;;22.63;23.48;101358.13;3591110;39;20657;-42
2021/04/04 10:43:21;;;;;;;9.98;4.85;;;;;;;20.81;25.15;101335.53;3591866;39;20420;-41
2021/04/04 10:46:08;;;;;;;8.88;4.00;;;;;;;22.06;24.34;101342.28;3593322;39;20107;-49
2021/04/04 10:48:47;;;;;;;8.45;4.43;;;;;;;22.69;22.97;101345.84;3590332;39;20036;-43
2021/04/04 10:51:16;;;;;;;9.48;4.35;;;;;;;22.34;24.25;101335.00;3591745;39;20067;-44
2021/04/04 10:53:44;;;;;;;10.23;4.85;;;;;;;21.78;26.00;101339.09;3592901;39;20096;-44
2021/04/04 10:56:12;;;;;;;12.38;5.10;;;;;;;23.79;22.83;101331.91;3593233;39;20060;-43
2021/04/04 10:58:41;;;;;;;12.38;5.10;;;;;;;20.03;27.85;101323.72;3594064;39;20048;-45
2021/04/04 11:01:12;;;;;;;9.13;4.90;;;;;;;17.81;29.71;101309.50;3594214;39;20129;-43
2021/04/04 11:03:44;;;;;;;9.77;4.32;;;;;;;17.23;32.28;101306.47;3593982;39;20333;-47
2021/04/04 11:06:14;;;;;;;12.07;4.30;;;;;;;20.76;27.87;101314.72;3594202;39;20052;-42
2021/04/04 11:08:42;;;;;;;13.02;5.00;;;;;;;20.37;27.36;101297.56;3594521;39;20074;-45
2021/04/04 11:11:13;;;;;;;9.55;5.10;;;;;;;20.90;27.33;101296.41;3593928;39;20444;-43
2021/04/04 11:13:49;;;;;;;11.38;4.40;;;;;;;18.00;30.96;101293.19;3593002;39;20064;-44
2021/04/04 11:16:18;;;;;;;8.73;4.72;;;;;;;17.86;31.90;101291.41;3592909;39;20046;-45
2021/04/04 11:18:57;;;;;;;7.03;3.42;;;;;;;18.13;29.82;101286.34;3593820;39;20118;-44
2021/04/04 11:21:40;;;;;;;8.73;4.70;;;;;;;18.66;29.19;101289.94;3593647;39;20421;-42
2021/04/04 11:24:19;;;;;;;9.23;3.92;;;;;;;20.23;26.35;101279.41;3594287;39;20754;-45
2021/04/04 11:27:02;;;;;;;7.22;3.90;;;;;;;22.44;24.01;101291.38;3594043;39;20310;-42
2021/04/04 11:29:44;;;;;;;6.93;3.78;;;;;;;20.87;25.63;101280.81;3593826;39;20054;-46
2021/04/04 11:32:18;;;;;;;9.32;3.50;;;;;;;22.41;24.97;101278.38;3593787;39;20043;-43
2021/04/04 11:35:00;;;;;;;7.13;3.58;;;;;;;22.73;23.23;101272.69;3594431;39;20140;-46
2021/04/04 11:37:31;;;;;;;7.05;3.70;;;;;;;24.35;21.70;101272.31;3593790;39;20052;-44
2021/04/04 11:40:23;;;;;;;11.77;4.32;;;;;;;25.37;20.95;101263.78;3594080;39;20414;-43
2021/04/04 11:43:13;;;;;;;5.82;3.65;;;;;;;24.17;21.87;101254.41;3592576;39;20044;-43
2021/04/04 11:45:43;;;;;;;8.13;3.72;;;;;;;25.35;20.99;101260.34;3590744;39;20067;-43
2021/04/04 11:48:31;;;;;;;6.50;3.30;;;;;;;24.49;20.64;101258.94;3593044;39;20051;-42
2021/04/04 11:51:12;;;;;;;5.45;2.97;;;;;;;22.77;22.55;101250.00;3593078;39;20056;-44
2021/04/04 11:53:49;;;;;;;6.95;3.67;;;;;;;22.50;24.28;101246.06;3593380;39;20056;-45
2021/04/04 11:56:42;;;;;;;8.65;3.75;;;;;;;23.75;23.20;101241.31;3592577;39;20096;-45
2021/04/04 11:59:13;;;;;;;9.05;4.20;;;;;;;25.96;20.66;101236.81;3593584;39;20050;-43